sensor_id;sensor_type;location;lat;lon;timestamp;P1;durP1;ratioP1;P2;durP2;ratioP2
41635;SDS011;27623;51.966;4.602;2022-12-11T00:01:40;51.75;;;23.52;;
41635;SDS011;27623;51.966;4.602;2022-12-11T00:04:06;47.60;;;21.17;;
41635;SDS011;27623;51.966;4.602;2022-12-11T00:06:32;48.67;;;23.33;;
41635;SDS011;27623;51.966;4.602;2022-12-11T00:08:58;53.10;;;23.08;;
41635;SDS011;27623;51.966;4.602;2022-12-11T00:11:23;48.17;;;21.70;;
41635;SDS011;27623;51.966;4.602;2022-12-11T00:13:49;46.28;;;21.70;;
41635;SDS011;27623;51.966;4.602;2022-12-11T00:16:15;43.25;;;20.98;;
41635;SDS011;27623;51.966;4.602;2022-12-11T00:18:40;49.78;;;21.98;;
41635;SDS011;27623;51.966;4.602;2022-12-11T00:21:07;50.47;;;22.85;;
41635;SDS011;27623;51.966;4.602;2022-12-11T00:23:34;44.75;;;20.83;;
41635;SDS011;27623;51.966;4.602;2022-12-11T00:26:03;50.15;;;22.50;;
41635;SDS011;27623;51.966;4.602;2022-12-11T00:28:30;40.28;;;19.73;;
41635;SDS011;27623;51.966;4.602;2022-12-11T00:30:55;44.97;;;20.25;;
41635;SDS011;27623;51.966;4.602;2022-12-11T00:33:21;44.88;;;21.83;;
41635;SDS011;27623;51.966;4.602;2022-12-11T00:35:46;39.63;;;19.77;;
41635;SDS011;27623;51.966;4.602;2022-12-11T00:38:16;43.70;;;20.63;;
41635;SDS011;27623;51.966;4.602;2022-12-11T00:40:43;47.45;;;20.48;;
41635;SDS011;27623;51.966;4.602;2022-12-11T00:43:09;42.55;;;18.90;;
41635;SDS011;27623;51.966;4.602;2022-12-11T00:45:36;41.65;;;19.30;;
41635;SDS011;27623;51.966;4.602;2022-12-11T00:48:02;43.08;;;19.35;;
41635;SDS011;27623;51.966;4.602;2022-12-11T00:50:30;42.85;;;19.10;;
41635;SDS011;27623;51.966;4.602;2022-12-11T00:52:55;38.22;;;18.60;;
41635;SDS011;27623;51.966;4.602;2022-12-11T00:55:21;41.75;;;19.45;;
41635;SDS011;27623;51.966;4.602;2022-12-11T00:57:47;41.50;;;19.83;;
41635;SDS011;27623;51.966;4.602;2022-12-11T01:00:15;41.05;;;18.63;;
41635;SDS011;27623;51.966;4.602;2022-12-11T01:02:41;44.67;;;19.67;;
41635;SDS011;27623;51.966;4.602;2022-12-11T01:05:08;37.35;;;18.33;;
41635;SDS011;27623;51.966;4.602;2022-12-11T01:07:35;36.65;;;17.25;;
41635;SDS011;27623;51.966;4.602;2022-12-11T01:10:00;41.78;;;18.27;;
41635;SDS011;27623;51.966;4.602;2022-12-11T01:15:11;32.47;;;15.00;;
41635;SDS011;27623;51.966;4.602;2022-12-11T01:17:36;30.15;;;15.38;;
41635;SDS011;27623;51.966;4.602;2022-12-11T01:20:02;32.53;;;15.63;;
41635;SDS011;27623;51.966;4.602;2022-12-11T01:22:29;30.02;;;14.20;;
41635;SDS011;27623;51.966;4.602;2022-12-11T01:24:55;27.33;;;13.52;;
41635;SDS011;27623;51.966;4.602;2022-12-11T01:27:20;23.48;;;13.88;;
41635;SDS011;27623;51.966;4.602;2022-12-11T01:29:45;28.73;;;13.93;;
41635;SDS011;27623;51.966;4.602;2022-12-11T01:32:13;29.17;;;14.23;;
41635;SDS011;27623;51.966;4.602;2022-12-11T01:34:40;26.48;;;13.77;;
41635;SDS011;27623;51.966;4.602;2022-12-11T01:37:05;24.23;;;12.98;;
41635;SDS011;27623;51.966;4.602;2022-12-11T01:39:31;25.50;;;12.35;;
41635;SDS011;27623;51.966;4.602;2022-12-11T01:41:57;26.42;;;13.45;;
41635;SDS011;27623;51.966;4.602;2022-12-11T01:46:51;27.98;;;13.35;;
41635;SDS011;27623;51.966;4.602;2022-12-11T01:49:20;25.42;;;12.35;;
41635;SDS011;27623;51.966;4.602;2022-12-11T01:54:30;24.77;;;12.30;;
41635;SDS011;27623;51.966;4.602;2022-12-11T01:56:58;27.75;;;12.27;;
41635;SDS011;27623;51.966;4.602;2022-12-11T01:59:29;26.92;;;11.43;;
41635;SDS011;27623;51.966;4.602;2022-12-11T02:04:37;25.52;;;12.25;;
41635;SDS011;27623;51.966;4.602;2022-12-11T02:07:06;27.85;;;12.73;;
41635;SDS011;27623;51.966;4.602;2022-12-11T02:09:34;26.10;;;12.68;;
41635;SDS011;27623;51.966;4.602;2022-12-11T02:17:52;28.15;;;12.18;;
41635;SDS011;27623;51.966;4.602;2022-12-11T02:23:23;30.08;;;12.65;;
41635;SDS011;27623;51.966;4.602;2022-12-11T02:28:53;26.50;;;13.13;;
41635;SDS011;27623;51.966;4.602;2022-12-11T02:34:08;24.88;;;11.73;;
41635;SDS011;27623;51.966;4.602;2022-12-11T02:36:39;30.58;;;12.52;;
41635;SDS011;27623;51.966;4.602;2022-12-11T02:39:08;24.42;;;12.23;;
41635;SDS011;27623;51.966;4.602;2022-12-11T02:41:37;29.05;;;12.48;;
41635;SDS011;27623;51.966;4.602;2022-12-11T02:44:06;27.60;;;11.63;;
41635;SDS011;27623;51.966;4.602;2022-12-11T02:46:36;24.58;;;10.90;;
41635;SDS011;27623;51.966;4.602;2022-12-11T02:49:02;27.10;;;11.88;;
41635;SDS011;27623;51.966;4.602;2022-12-11T02:51:32;22.73;;;10.57;;
41635;SDS011;27623;51.966;4.602;2022-12-11T02:54:02;26.13;;;11.07;;
41635;SDS011;27623;51.966;4.602;2022-12-11T02:56:33;31.55;;;11.77;;
41635;SDS011;27623;51.966;4.602;2022-12-11T02:59:10;26.48;;;12.18;;
41635;SDS011;27623;51.966;4.602;2022-12-11T03:01:39;24.85;;;11.65;;
41635;SDS011;27623;51.966;4.602;2022-12-11T03:04:06;26.83;;;11.40;;
41635;SDS011;27623;51.966;4.602;2022-12-11T03:06:33;25.90;;;10.65;;
41635;SDS011;27623;51.966;4.602;2022-12-11T03:09:01;22.75;;;11.13;;
41635;SDS011;27623;51.966;4.602;2022-12-11T03:11:28;25.05;;;12.25;;
41635;SDS011;27623;51.966;4.602;2022-12-11T03:13:54;26.00;;;12.75;;
41635;SDS011;27623;51.966;4.602;2022-12-11T03:16:39;27.67;;;13.38;;
41635;SDS011;27623;51.966;4.602;2022-12-11T03:19:27;29.45;;;13.40;;
41635;SDS011;27623;51.966;4.602;2022-12-11T03:22:07;30.10;;;13.70;;
41635;SDS011;27623;51.966;4.602;2022-12-11T03:24:50;29.25;;;14.13;;
41635;SDS011;27623;51.966;4.602;2022-12-11T03:30:09;32.60;;;15.23;;
41635;SDS011;27623;51.966;4.602;2022-12-11T03:32:44;31.23;;;13.50;;
41635;SDS011;27623;51.966;4.602;2022-12-11T03:37:59;31.35;;;13.25;;
41635;SDS011;27623;51.966;4.602;2022-12-11T03:40:30;31.40;;;13.48;;
41635;SDS011;27623;51.966;4.602;2022-12-11T03:42:58;32.30;;;12.50;;
41635;SDS011;27623;51.966;4.602;2022-12-11T03:45:24;29.10;;;13.38;;
41635;SDS011;27623;51.966;4.602;2022-12-11T03:47:54;29.13;;;12.82;;
41635;SDS011;27623;51.966;4.602;2022-12-11T03:50:23;30.75;;;13.93;;
41635;SDS011;27623;51.966;4.602;2022-12-11T03:52:51;27.23;;;13.60;;
41635;SDS011;27623;51.966;4.602;2022-12-11T03:55:18;31.42;;;14.32;;
41635;SDS011;27623;51.966;4.602;2022-12-11T03:57:51;32.97;;;14.00;;
41635;SDS011;27623;51.966;4.602;2022-12-11T04:00:18;29.52;;;13.35;;
41635;SDS011;27623;51.966;4.602;2022-12-11T04:02:45;32.13;;;14.05;;
41635;SDS011;27623;51.966;4.602;2022-12-11T04:05:31;27.58;;;13.95;;
41635;SDS011;27623;51.966;4.602;2022-12-11T04:07:56;28.30;;;13.73;;
41635;SDS011;27623;51.966;4.602;2022-12-11T04:10:21;28.15;;;13.82;;
41635;SDS011;27623;51.966;4.602;2022-12-11T04:12:47;30.88;;;13.60;;
41635;SDS011;27623;51.966;4.602;2022-12-11T04:15:12;30.60;;;12.98;;
41635;SDS011;27623;51.966;4.602;2022-12-11T04:17:38;26.40;;;12.27;;
41635;SDS011;27623;51.966;4.602;2022-12-11T04:20:21;27.17;;;12.40;;
41635;SDS011;27623;51.966;4.602;2022-12-11T04:23:08;26.65;;;11.70;;
41635;SDS011;27623;51.966;4.602;2022-12-11T04:26:02;21.98;;;10.75;;
41635;SDS011;27623;51.966;4.602;2022-12-11T04:28:36;30.25;;;12.70;;
41635;SDS011;27623;51.966;4.602;2022-12-11T04:31:02;26.90;;;11.60;;
41635;SDS011;27623;51.966;4.602;2022-12-11T04:33:28;27.00;;;12.30;;
41635;SDS011;27623;51.966;4.602;2022-12-11T04:35:56;22.80;;;11.02;;
41635;SDS011;27623;51.966;4.602;2022-12-11T04:38:22;25.70;;;11.80;;
41635;SDS011;27623;51.966;4.602;2022-12-11T04:40:48;22.98;;;11.52;;
41635;SDS011;27623;51.966;4.602;2022-12-11T04:43:13;27.70;;;11.95;;
41635;SDS011;27623;51.966;4.602;2022-12-11T04:45:39;25.98;;;11.95;;
41635;SDS011;27623;51.966;4.602;2022-12-11T04:48:04;26.70;;;11.27;;
41635;SDS011;27623;51.966;4.602;2022-12-11T04:50:31;23.73;;;10.30;;
41635;SDS011;27623;51.966;4.602;2022-12-11T04:52:56;22.33;;;9.82;;
41635;SDS011;27623;51.966;4.602;2022-12-11T04:55:22;20.20;;;9.65;;
41635;SDS011;27623;51.966;4.602;2022-12-11T04:57:48;21.80;;;10.23;;
41635;SDS011;27623;51.966;4.602;2022-12-11T05:00:13;22.98;;;10.93;;
41635;SDS011;27623;51.966;4.602;2022-12-11T05:02:39;23.40;;;11.05;;
41635;SDS011;27623;51.966;4.602;2022-12-11T05:05:06;24.00;;;9.80;;
41635;SDS011;27623;51.966;4.602;2022-12-11T05:07:33;23.23;;;10.18;;
41635;SDS011;27623;51.966;4.602;2022-12-11T05:09:59;22.73;;;11.25;;
41635;SDS011;27623;51.966;4.602;2022-12-11T05:12:24;20.50;;;9.65;;
41635;SDS011;27623;51.966;4.602;2022-12-11T05:14:50;23.45;;;10.48;;
41635;SDS011;27623;51.966;4.602;2022-12-11T05:17:17;24.73;;;10.07;;
41635;SDS011;27623;51.966;4.602;2022-12-11T05:19:43;25.42;;;11.13;;
41635;SDS011;27623;51.966;4.602;2022-12-11T05:22:08;25.00;;;11.25;;
41635;SDS011;27623;51.966;4.602;2022-12-11T05:24:34;20.77;;;10.55;;
41635;SDS011;27623;51.966;4.602;2022-12-11T05:26:59;25.40;;;10.68;;
41635;SDS011;27623;51.966;4.602;2022-12-11T05:29:24;20.85;;;10.10;;
41635;SDS011;27623;51.966;4.602;2022-12-11T05:31:50;23.00;;;10.60;;
41635;SDS011;27623;51.966;4.602;2022-12-11T05:34:15;27.40;;;11.43;;
41635;SDS011;27623;51.966;4.602;2022-12-11T05:36:41;25.85;;;11.23;;
41635;SDS011;27623;51.966;4.602;2022-12-11T05:39:06;23.92;;;10.80;;
41635;SDS011;27623;51.966;4.602;2022-12-11T05:41:32;26.92;;;12.07;;
41635;SDS011;27623;51.966;4.602;2022-12-11T05:43:57;24.73;;;10.65;;
41635;SDS011;27623;51.966;4.602;2022-12-11T05:46:27;23.77;;;10.30;;
41635;SDS011;27623;51.966;4.602;2022-12-11T05:48:55;28.10;;;12.30;;
41635;SDS011;27623;51.966;4.602;2022-12-11T05:51:23;28.30;;;12.30;;
41635;SDS011;27623;51.966;4.602;2022-12-11T05:53:50;24.90;;;10.68;;
41635;SDS011;27623;51.966;4.602;2022-12-11T05:56:34;24.80;;;11.45;;
41635;SDS011;27623;51.966;4.602;2022-12-11T05:59:01;27.02;;;11.77;;
41635;SDS011;27623;51.966;4.602;2022-12-11T06:01:29;29.60;;;12.52;;
41635;SDS011;27623;51.966;4.602;2022-12-11T06:03:58;25.30;;;12.25;;
41635;SDS011;27623;51.966;4.602;2022-12-11T06:06:24;26.88;;;12.02;;
41635;SDS011;27623;51.966;4.602;2022-12-11T06:08:51;26.17;;;11.20;;
41635;SDS011;27623;51.966;4.602;2022-12-11T06:11:21;25.70;;;12.25;;
41635;SDS011;27623;51.966;4.602;2022-12-11T06:13:47;29.65;;;11.95;;
41635;SDS011;27623;51.966;4.602;2022-12-11T06:16:14;26.25;;;12.18;;
41635;SDS011;27623;51.966;4.602;2022-12-11T06:18:40;26.42;;;10.95;;
41635;SDS011;27623;51.966;4.602;2022-12-11T06:23:40;27.63;;;12.60;;
41635;SDS011;27623;51.966;4.602;2022-12-11T06:26:05;27.00;;;12.35;;
41635;SDS011;27623;51.966;4.602;2022-12-11T06:28:31;26.20;;;11.73;;
41635;SDS011;27623;51.966;4.602;2022-12-11T06:30:57;33.92;;;12.80;;
41635;SDS011;27623;51.966;4.602;2022-12-11T06:33:23;29.80;;;12.73;;
41635;SDS011;27623;51.966;4.602;2022-12-11T06:35:49;29.45;;;13.10;;
41635;SDS011;27623;51.966;4.602;2022-12-11T06:38:15;26.65;;;11.32;;
41635;SDS011;27623;51.966;4.602;2022-12-11T06:40:41;27.92;;;12.18;;
41635;SDS011;27623;51.966;4.602;2022-12-11T06:43:07;28.33;;;12.63;;
41635;SDS011;27623;51.966;4.602;2022-12-11T06:45:32;31.52;;;12.65;;
41635;SDS011;27623;51.966;4.602;2022-12-11T06:47:58;26.08;;;11.70;;
41635;SDS011;27623;51.966;4.602;2022-12-11T06:50:23;28.50;;;13.35;;
41635;SDS011;27623;51.966;4.602;2022-12-11T06:52:48;28.08;;;12.90;;
41635;SDS011;27623;51.966;4.602;2022-12-11T06:55:14;31.08;;;13.00;;
41635;SDS011;27623;51.966;4.602;2022-12-11T06:57:40;30.58;;;11.43;;
41635;SDS011;27623;51.966;4.602;2022-12-11T07:00:06;21.98;;;9.80;;
41635;SDS011;27623;51.966;4.602;2022-12-11T07:02:32;29.92;;;12.25;;
41635;SDS011;27623;51.966;4.602;2022-12-11T07:04:58;30.40;;;12.38;;
41635;SDS011;27623;51.966;4.602;2022-12-11T07:07:23;27.05;;;11.73;;
41635;SDS011;27623;51.966;4.602;2022-12-11T07:09:49;30.45;;;12.80;;
41635;SDS011;27623;51.966;4.602;2022-12-11T07:12:15;27.45;;;11.63;;
41635;SDS011;27623;51.966;4.602;2022-12-11T07:14:40;25.02;;;11.27;;
41635;SDS011;27623;51.966;4.602;2022-12-11T07:17:06;25.05;;;10.80;;
41635;SDS011;27623;51.966;4.602;2022-12-11T07:19:31;27.38;;;12.80;;
41635;SDS011;27623;51.966;4.602;2022-12-11T07:21:57;24.80;;;11.70;;
41635;SDS011;27623;51.966;4.602;2022-12-11T07:24:22;26.92;;;12.00;;
41635;SDS011;27623;51.966;4.602;2022-12-11T07:26:48;27.88;;;11.68;;
41635;SDS011;27623;51.966;4.602;2022-12-11T07:29:13;27.20;;;12.07;;
41635;SDS011;27623;51.966;4.602;2022-12-11T07:31:39;27.55;;;12.38;;
41635;SDS011;27623;51.966;4.602;2022-12-11T07:34:05;26.50;;;10.55;;
41635;SDS011;27623;51.966;4.602;2022-12-11T07:36:31;27.65;;;12.18;;
41635;SDS011;27623;51.966;4.602;2022-12-11T07:38:57;25.02;;;11.48;;
41635;SDS011;27623;51.966;4.602;2022-12-11T07:41:23;27.48;;;11.77;;
41635;SDS011;27623;51.966;4.602;2022-12-11T07:43:51;30.95;;;13.65;;
41635;SDS011;27623;51.966;4.602;2022-12-11T07:46:19;30.25;;;12.85;;
41635;SDS011;27623;51.966;4.602;2022-12-11T07:48:46;28.55;;;12.20;;
41635;SDS011;27623;51.966;4.602;2022-12-11T07:51:14;25.33;;;12.50;;
41635;SDS011;27623;51.966;4.602;2022-12-11T07:53:40;27.92;;;12.55;;
41635;SDS011;27623;51.966;4.602;2022-12-11T07:56:07;28.80;;;13.65;;
41635;SDS011;27623;51.966;4.602;2022-12-11T07:58:32;29.88;;;14.20;;
41635;SDS011;27623;51.966;4.602;2022-12-11T08:00:58;31.15;;;13.45;;
41635;SDS011;27623;51.966;4.602;2022-12-11T08:03:24;30.27;;;12.80;;
41635;SDS011;27623;51.966;4.602;2022-12-11T08:05:50;27.70;;;12.70;;
41635;SDS011;27623;51.966;4.602;2022-12-11T08:08:16;30.65;;;13.32;;
41635;SDS011;27623;51.966;4.602;2022-12-11T08:10:43;31.25;;;14.00;;
41635;SDS011;27623;51.966;4.602;2022-12-11T08:13:08;31.38;;;13.35;;
41635;SDS011;27623;51.966;4.602;2022-12-11T08:15:34;29.48;;;12.68;;
41635;SDS011;27623;51.966;4.602;2022-12-11T08:17:59;29.02;;;12.43;;
41635;SDS011;27623;51.966;4.602;2022-12-11T08:20:25;27.95;;;12.52;;
41635;SDS011;27623;51.966;4.602;2022-12-11T08:22:50;30.35;;;12.77;;
41635;SDS011;27623;51.966;4.602;2022-12-11T08:25:16;30.20;;;12.93;;
41635;SDS011;27623;51.966;4.602;2022-12-11T08:27:41;29.67;;;13.95;;
41635;SDS011;27623;51.966;4.602;2022-12-11T08:30:07;31.65;;;13.85;;
41635;SDS011;27623;51.966;4.602;2022-12-11T08:32:36;30.88;;;13.38;;
41635;SDS011;27623;51.966;4.602;2022-12-11T08:35:01;29.38;;;12.75;;
41635;SDS011;27623;51.966;4.602;2022-12-11T08:37:27;36.50;;;14.23;;
41635;SDS011;27623;51.966;4.602;2022-12-11T08:39:53;32.00;;;14.15;;
41635;SDS011;27623;51.966;4.602;2022-12-11T08:42:19;30.80;;;13.68;;
41635;SDS011;27623;51.966;4.602;2022-12-11T08:44:44;26.55;;;12.48;;
41635;SDS011;27623;51.966;4.602;2022-12-11T08:47:10;26.95;;;13.25;;
41635;SDS011;27623;51.966;4.602;2022-12-11T08:49:36;31.58;;;14.82;;
41635;SDS011;27623;51.966;4.602;2022-12-11T08:52:03;33.20;;;15.07;;
41635;SDS011;27623;51.966;4.602;2022-12-11T08:54:29;32.58;;;14.50;;
41635;SDS011;27623;51.966;4.602;2022-12-11T08:56:55;32.50;;;13.88;;
41635;SDS011;27623;51.966;4.602;2022-12-11T08:59:21;28.45;;;12.07;;
41635;SDS011;27623;51.966;4.602;2022-12-11T09:01:47;33.58;;;13.73;;
41635;SDS011;27623;51.966;4.602;2022-12-11T09:04:13;30.80;;;13.13;;
41635;SDS011;27623;51.966;4.602;2022-12-11T09:06:38;23.92;;;11.45;;
41635;SDS011;27623;51.966;4.602;2022-12-11T09:09:04;28.63;;;13.13;;
41635;SDS011;27623;51.966;4.602;2022-12-11T09:11:31;28.55;;;12.68;;
41635;SDS011;27623;51.966;4.602;2022-12-11T09:13:57;30.02;;;12.50;;
41635;SDS011;27623;51.966;4.602;2022-12-11T09:16:24;28.35;;;13.48;;
41635;SDS011;27623;51.966;4.602;2022-12-11T09:18:51;26.50;;;11.98;;
41635;SDS011;27623;51.966;4.602;2022-12-11T09:21:19;30.58;;;13.68;;
41635;SDS011;27623;51.966;4.602;2022-12-11T09:23:51;26.48;;;13.02;;
41635;SDS011;27623;51.966;4.602;2022-12-11T09:26:17;28.52;;;13.43;;
41635;SDS011;27623;51.966;4.602;2022-12-11T09:28:44;29.63;;;13.57;;
41635;SDS011;27623;51.966;4.602;2022-12-11T09:31:11;33.17;;;13.63;;
41635;SDS011;27623;51.966;4.602;2022-12-11T09:33:41;32.25;;;14.45;;
41635;SDS011;27623;51.966;4.602;2022-12-11T09:36:07;32.90;;;15.27;;
41635;SDS011;27623;51.966;4.602;2022-12-11T09:38:33;31.70;;;14.02;;
41635;SDS011;27623;51.966;4.602;2022-12-11T09:41:00;33.03;;;14.70;;
41635;SDS011;27623;51.966;4.602;2022-12-11T09:46:02;36.78;;;15.15;;
41635;SDS011;27623;51.966;4.602;2022-12-11T09:48:31;34.67;;;14.15;;
41635;SDS011;27623;51.966;4.602;2022-12-11T09:50:58;36.53;;;13.65;;
41635;SDS011;27623;51.966;4.602;2022-12-11T09:53:34;38.00;;;14.38;;
41635;SDS011;27623;51.966;4.602;2022-12-11T09:56:09;37.35;;;15.52;;
41635;SDS011;27623;51.966;4.602;2022-12-11T10:08:02;44.78;;;17.90;;
41635;SDS011;27623;51.966;4.602;2022-12-11T10:11:04;42.90;;;16.63;;
41635;SDS011;27623;51.966;4.602;2022-12-11T10:19:01;41.97;;;17.00;;
41635;SDS011;27623;51.966;4.602;2022-12-11T10:21:28;45.20;;;17.38;;
41635;SDS011;27623;51.966;4.602;2022-12-11T10:24:02;44.55;;;18.23;;
41635;SDS011;27623;51.966;4.602;2022-12-11T10:26:36;49.88;;;18.95;;
41635;SDS011;27623;51.966;4.602;2022-12-11T10:29:04;47.47;;;17.58;;
41635;SDS011;27623;51.966;4.602;2022-12-11T10:34:11;42.55;;;16.80;;
41635;SDS011;27623;51.966;4.602;2022-12-11T10:36:39;29.48;;;13.18;;
41635;SDS011;27623;51.966;4.602;2022-12-11T10:39:16;45.75;;;18.67;;
41635;SDS011;27623;51.966;4.602;2022-12-11T10:41:51;43.55;;;16.02;;
41635;SDS011;27623;51.966;4.602;2022-12-11T10:44:19;48.65;;;18.48;;
41635;SDS011;27623;51.966;4.602;2022-12-11T10:46:46;43.05;;;18.20;;
41635;SDS011;27623;51.966;4.602;2022-12-11T10:49:25;45.72;;;17.48;;
41635;SDS011;27623;51.966;4.602;2022-12-11T10:51:54;45.17;;;18.20;;
41635;SDS011;27623;51.966;4.602;2022-12-11T10:54:37;43.20;;;16.67;;
41635;SDS011;27623;51.966;4.602;2022-12-11T10:57:08;40.88;;;16.73;;
41635;SDS011;27623;51.966;4.602;2022-12-11T11:02:18;41.38;;;16.38;;
41635;SDS011;27623;51.966;4.602;2022-12-11T11:04:48;42.08;;;17.48;;
41635;SDS011;27623;51.966;4.602;2022-12-11T11:07:22;43.15;;;18.90;;
41635;SDS011;27623;51.966;4.602;2022-12-11T11:10:01;44.72;;;17.75;;
41635;SDS011;27623;51.966;4.602;2022-12-11T11:12:37;47.10;;;18.25;;
41635;SDS011;27623;51.966;4.602;2022-12-11T11:15:09;48.50;;;18.92;;
41635;SDS011;27623;51.966;4.602;2022-12-11T11:17:43;44.50;;;17.23;;
41635;SDS011;27623;51.966;4.602;2022-12-11T11:20:21;43.03;;;17.65;;
41635;SDS011;27623;51.966;4.602;2022-12-11T11:22:49;44.60;;;17.73;;
41635;SDS011;27623;51.966;4.602;2022-12-11T11:25:27;45.92;;;18.55;;
41635;SDS011;27623;51.966;4.602;2022-12-11T11:30:23;46.67;;;18.50;;
41635;SDS011;27623;51.966;4.602;2022-12-11T11:33:01;46.55;;;17.60;;
41635;SDS011;27623;51.966;4.602;2022-12-11T11:35:30;45.47;;;18.15;;
41635;SDS011;27623;51.966;4.602;2022-12-11T11:38:03;42.60;;;17.65;;
41635;SDS011;27623;51.966;4.602;2022-12-11T11:40:54;43.40;;;18.73;;
41635;SDS011;27623;51.966;4.602;2022-12-11T11:43:41;45.83;;;18.85;;
41635;SDS011;27623;51.966;4.602;2022-12-11T11:52:11;44.10;;;17.20;;
41635;SDS011;27623;51.966;4.602;2022-12-11T11:57:41;42.45;;;17.52;;
41635;SDS011;27623;51.966;4.602;2022-12-11T12:02:42;51.63;;;18.05;;
41635;SDS011;27623;51.966;4.602;2022-12-11T12:05:11;48.05;;;19.25;;
41635;SDS011;27623;51.966;4.602;2022-12-11T12:10:30;47.30;;;17.63;;
41635;SDS011;27623;51.966;4.602;2022-12-11T12:16:42;43.80;;;17.73;;
41635;SDS011;27623;51.966;4.602;2022-12-11T12:22:51;48.20;;;19.20;;
41635;SDS011;27623;51.966;4.602;2022-12-11T12:25:02;49.88;;;18.65;;
41635;SDS011;27623;51.966;4.602;2022-12-11T12:28:04;47.67;;;18.13;;
41635;SDS011;27623;51.966;4.602;2022-12-11T12:38:53;48.15;;;18.23;;
41635;SDS011;27623;51.966;4.602;2022-12-11T12:44:15;44.03;;;17.85;;
41635;SDS011;27623;51.966;4.602;2022-12-11T12:49:27;47.45;;;19.02;;
41635;SDS011;27623;51.966;4.602;2022-12-11T12:51:58;45.75;;;17.95;;
41635;SDS011;27623;51.966;4.602;2022-12-11T12:54:25;44.78;;;18.05;;
41635;SDS011;27623;51.966;4.602;2022-12-11T12:56:55;50.25;;;20.15;;
41635;SDS011;27623;51.966;4.602;2022-12-11T12:59:23;46.92;;;18.33;;
41635;SDS011;27623;51.966;4.602;2022-12-11T13:01:50;43.65;;;16.52;;
41635;SDS011;27623;51.966;4.602;2022-12-11T13:04:33;41.72;;;17.00;;
41635;SDS011;27623;51.966;4.602;2022-12-11T13:07:17;37.17;;;16.20;;
41635;SDS011;27623;51.966;4.602;2022-12-11T13:09:57;41.63;;;16.60;;
41635;SDS011;27623;51.966;4.602;2022-12-11T13:12:39;39.45;;;15.98;;
41635;SDS011;27623;51.966;4.602;2022-12-11T13:18:00;36.72;;;15.27;;
41635;SDS011;27623;51.966;4.602;2022-12-11T13:20:32;40.83;;;14.52;;
41635;SDS011;27623;51.966;4.602;2022-12-11T13:23:44;41.72;;;16.05;;
41635;SDS011;27623;51.966;4.602;2022-12-11T13:25:55;34.77;;;14.80;;
41635;SDS011;27623;51.966;4.602;2022-12-11T13:30:58;34.33;;;14.68;;
41635;SDS011;27623;51.966;4.602;2022-12-11T13:33:26;36.60;;;14.57;;
41635;SDS011;27623;51.966;4.602;2022-12-11T13:38:36;33.33;;;13.70;;
41635;SDS011;27623;51.966;4.602;2022-12-11T13:41:03;34.55;;;14.93;;
41635;SDS011;27623;51.966;4.602;2022-12-11T13:43:35;40.17;;;15.88;;
41635;SDS011;27623;51.966;4.602;2022-12-11T13:46:08;38.88;;;14.63;;
41635;SDS011;27623;51.966;4.602;2022-12-11T13:48:43;42.22;;;17.05;;
41635;SDS011;27623;51.966;4.602;2022-12-11T13:51:13;39.35;;;15.68;;
41635;SDS011;27623;51.966;4.602;2022-12-11T13:53:41;30.30;;;13.23;;
41635;SDS011;27623;51.966;4.602;2022-12-11T13:56:12;31.27;;;12.80;;
41635;SDS011;27623;51.966;4.602;2022-12-11T13:58:42;42.50;;;15.40;;
41635;SDS011;27623;51.966;4.602;2022-12-11T14:01:21;35.05;;;13.68;;
41635;SDS011;27623;51.966;4.602;2022-12-11T14:06:32;34.80;;;14.63;;
41635;SDS011;27623;51.966;4.602;2022-12-11T14:08:59;32.78;;;14.40;;
41635;SDS011;27623;51.966;4.602;2022-12-11T14:11:31;35.60;;;15.65;;
41635;SDS011;27623;51.966;4.602;2022-12-11T14:14:00;30.88;;;14.38;;
41635;SDS011;27623;51.966;4.602;2022-12-11T14:16:28;37.92;;;15.70;;
41635;SDS011;27623;51.966;4.602;2022-12-11T14:19:02;40.08;;;16.10;;
41635;SDS011;27623;51.966;4.602;2022-12-11T14:21:30;37.67;;;14.82;;
41635;SDS011;27623;51.966;4.602;2022-12-11T14:23:56;39.05;;;16.00;;
41635;SDS011;27623;51.966;4.602;2022-12-11T14:26:24;37.75;;;15.55;;
41635;SDS011;27623;51.966;4.602;2022-12-11T14:28:52;42.42;;;16.08;;
41635;SDS011;27623;51.966;4.602;2022-12-11T14:31:24;42.50;;;17.17;;
41635;SDS011;27623;51.966;4.602;2022-12-11T14:34:31;41.72;;;16.52;;
41635;SDS011;27623;51.966;4.602;2022-12-11T14:36:52;38.45;;;15.48;;
41635;SDS011;27623;51.966;4.602;2022-12-11T14:39:21;39.33;;;14.57;;
41635;SDS011;27623;51.966;4.602;2022-12-11T14:42:02;31.27;;;15.07;;
41635;SDS011;27623;51.966;4.602;2022-12-11T14:44:42;37.17;;;15.90;;
41635;SDS011;27623;51.966;4.602;2022-12-11T14:47:13;35.10;;;14.90;;
41635;SDS011;27623;51.966;4.602;2022-12-11T14:52:23;41.95;;;16.40;;
41635;SDS011;27623;51.966;4.602;2022-12-11T14:54:55;38.10;;;15.75;;
41635;SDS011;27623;51.966;4.602;2022-12-11T14:57:44;40.75;;;16.33;;
41635;SDS011;27623;51.966;4.602;2022-12-11T15:00:23;34.40;;;14.85;;
41635;SDS011;27623;51.966;4.602;2022-12-11T15:03:02;35.67;;;15.02;;
41635;SDS011;27623;51.966;4.602;2022-12-11T15:05:31;35.72;;;15.27;;
41635;SDS011;27623;51.966;4.602;2022-12-11T15:08:14;31.20;;;13.05;;
41635;SDS011;27623;51.966;4.602;2022-12-11T15:13:57;34.53;;;15.50;;
41635;SDS011;27623;51.966;4.602;2022-12-11T15:16:25;30.67;;;13.27;;
41635;SDS011;27623;51.966;4.602;2022-12-11T15:18:54;31.25;;;14.02;;
41635;SDS011;27623;51.966;4.602;2022-12-11T15:21:30;35.15;;;15.65;;
41635;SDS011;27623;51.966;4.602;2022-12-11T15:24:03;35.50;;;15.20;;
41635;SDS011;27623;51.966;4.602;2022-12-11T15:29:05;34.60;;;15.75;;
41635;SDS011;27623;51.966;4.602;2022-12-11T15:31:46;37.65;;;17.02;;
41635;SDS011;27623;51.966;4.602;2022-12-11T15:34:30;34.22;;;16.92;;
41635;SDS011;27623;51.966;4.602;2022-12-11T15:37:25;39.53;;;16.92;;
41635;SDS011;27623;51.966;4.602;2022-12-11T15:39:52;33.05;;;15.38;;
41635;SDS011;27623;51.966;4.602;2022-12-11T15:42:27;34.90;;;15.32;;
41635;SDS011;27623;51.966;4.602;2022-12-11T15:44:55;37.40;;;15.32;;
41635;SDS011;27623;51.966;4.602;2022-12-11T15:47:22;34.17;;;15.68;;
41635;SDS011;27623;51.966;4.602;2022-12-11T15:49:50;36.90;;;15.95;;
41635;SDS011;27623;51.966;4.602;2022-12-11T15:52:18;35.58;;;14.93;;
41635;SDS011;27623;51.966;4.602;2022-12-11T15:54:44;35.75;;;16.00;;
41635;SDS011;27623;51.966;4.602;2022-12-11T15:57:11;34.60;;;14.77;;
41635;SDS011;27623;51.966;4.602;2022-12-11T15:59:43;34.40;;;14.68;;
41635;SDS011;27623;51.966;4.602;2022-12-11T16:02:12;31.20;;;14.30;;
41635;SDS011;27623;51.966;4.602;2022-12-11T16:04:39;39.58;;;16.58;;
41635;SDS011;27623;51.966;4.602;2022-12-11T16:07:05;34.67;;;15.23;;
41635;SDS011;27623;51.966;4.602;2022-12-11T16:09:36;35.78;;;16.25;;
41635;SDS011;27623;51.966;4.602;2022-12-11T16:12:01;39.20;;;16.13;;
41635;SDS011;27623;51.966;4.602;2022-12-11T16:14:27;36.72;;;15.80;;
41635;SDS011;27623;51.966;4.602;2022-12-11T16:16:52;36.97;;;15.82;;
41635;SDS011;27623;51.966;4.602;2022-12-11T16:19:18;33.67;;;15.43;;
41635;SDS011;27623;51.966;4.602;2022-12-11T16:21:43;36.63;;;16.05;;
41635;SDS011;27623;51.966;4.602;2022-12-11T16:24:08;34.17;;;15.02;;
41635;SDS011;27623;51.966;4.602;2022-12-11T16:26:34;34.20;;;15.75;;